createdAt,value
2023-04-20T00:00:49.834Z,900.00
2023-04-20T00:01:49.906Z,898.00
2023-04-20T00:02:50.109Z,894.00
2023-04-20T00:03:50.161Z,893.00
2023-04-20T00:04:50.065Z,894.00
2023-04-20T00:05:50.131Z,894.00
2023-04-20T00:06:50.192Z,890.00
2023-04-20T00:07:50.235Z,891.00
2023-04-20T00:08:50.292Z,887.00
2023-04-20T00:09:50.343Z,889.00
2023-04-20T00:10:50.423Z,889.00
2023-04-20T00:11:50.435Z,886.00
2023-04-20T00:12:50.496Z,883.00
2023-04-20T00:13:50.544Z,878.00
2023-04-20T00:14:50.591Z,875.00
2023-04-20T00:15:50.638Z,875.00
2023-04-20T00:16:50.710Z,874.00
2023-04-20T00:17:50.757Z,870.00
2023-04-20T00:18:50.740Z,870.00
2023-04-20T00:19:50.736Z,870.00
2023-04-20T00:20:50.741Z,871.00
2023-04-20T00:21:50.782Z,872.00
2023-04-20T00:22:50.765Z,871.00
2023-04-20T00:23:50.765Z,870.00
2023-04-20T00:24:50.769Z,867.00
2023-04-20T00:25:50.774Z,863.00
2023-04-20T00:26:50.827Z,864.00
2023-04-20T00:27:50.795Z,864.00
2023-04-20T00:28:50.822Z,860.00
2023-04-20T00:29:50.807Z,862.00
2023-04-20T00:30:50.841Z,865.00
2023-04-20T00:31:50.811Z,866.00
2023-04-20T00:32:50.890Z,868.00
2023-04-20T00:33:50.840Z,866.00
2023-04-20T00:34:50.894Z,865.00
2023-04-20T00:35:50.935Z,864.00
2023-04-20T00:36:50.963Z,864.00
2023-04-20T00:37:50.980Z,866.00
2023-04-20T00:38:50.990Z,869.00
2023-04-20T00:39:50.982Z,870.00
2023-04-20T00:40:51.005Z,871.00
2023-04-20T00:41:51.014Z,872.00
2023-04-20T00:42:51.231Z,870.00
2023-04-20T00:43:51.029Z,870.00
2023-04-20T00:44:51.007Z,870.00
2023-04-20T00:45:51.054Z,866.00
2023-04-20T00:46:51.005Z,865.00
2023-04-20T00:47:51.084Z,869.00
2023-04-20T00:48:51.044Z,868.00
2023-04-20T00:49:51.045Z,868.00
2023-04-20T00:50:51.056Z,866.00
2023-04-20T00:51:51.042Z,866.00
2023-04-20T00:52:51.059Z,867.00
2023-04-20T00:53:51.139Z,864.00
2023-04-20T00:54:51.169Z,866.00
2023-04-20T00:55:51.230Z,865.00
2023-04-20T00:56:51.312Z,866.00
2023-04-20T00:57:51.319Z,864.00
2023-04-20T00:58:51.354Z,865.00
2023-04-20T00:59:51.322Z,863.00
2023-04-20T01:00:51.311Z,862.00
2023-04-20T01:01:51.349Z,863.00
2023-04-20T01:02:51.418Z,859.00
2023-04-20T01:03:51.436Z,857.00
2023-04-20T01:04:51.357Z,855.00
2023-04-20T01:05:51.362Z,856.00
2023-04-20T01:06:51.366Z,853.00
2023-04-20T01:07:51.381Z,851.00
2023-04-20T01:08:51.393Z,848.00
2023-04-20T01:09:52.174Z,846.00
2023-04-20T01:10:51.378Z,844.00
2023-04-20T01:11:51.401Z,845.00
2023-04-20T01:12:51.443Z,846.00
2023-04-20T01:13:51.492Z,850.00
2023-04-20T01:14:51.553Z,849.00
2023-04-20T01:15:51.555Z,847.00
2023-04-20T01:16:51.522Z,848.00
2023-04-20T01:17:51.564Z,848.00
2023-04-20T01:18:51.536Z,853.00
2023-04-20T01:19:51.539Z,853.00
2023-04-20T01:20:51.546Z,851.00
2023-04-20T01:21:51.552Z,848.00
2023-04-20T01:22:51.557Z,847.00
2023-04-20T01:23:51.549Z,849.00
2023-04-20T01:24:51.542Z,847.00
2023-04-20T01:25:51.558Z,847.00
2023-04-20T01:26:51.593Z,844.00
2023-04-20T01:27:51.598Z,843.00
2023-04-20T01:28:51.603Z,845.00
2023-04-20T01:29:51.606Z,845.00
2023-04-20T01:30:51.681Z,847.00
2023-04-20T01:31:51.775Z,847.00
2023-04-20T01:32:51.763Z,844.00
2023-04-20T01:33:51.793Z,842.00
2023-04-20T01:34:51.841Z,841.00
2023-04-20T01:35:51.874Z,842.00
2023-04-20T01:36:51.909Z,843.00
2023-04-20T01:37:51.921Z,840.00
2023-04-20T01:38:51.904Z,840.00
2023-04-20T01:39:51.941Z,841.00
2023-04-20T01:40:51.916Z,842.00
2023-04-20T01:41:51.925Z,842.00
2023-04-20T01:42:51.933Z,842.00
2023-04-20T01:43:51.945Z,841.00
2023-04-20T01:44:51.928Z,840.00
2023-04-20T01:45:51.940Z,841.00
2023-04-20T01:46:51.980Z,840.00
2023-04-20T01:47:52.017Z,839.00
2023-04-20T01:48:52.041Z,838.00
2023-04-20T01:49:52.102Z,838.00
2023-04-20T01:50:52.077Z,834.00
2023-04-20T01:51:52.145Z,834.00
2023-04-20T01:52:52.182Z,832.00
2023-04-20T01:53:52.247Z,832.00
2023-04-20T01:54:52.265Z,832.00
2023-04-20T01:55:52.270Z,832.00
2023-04-20T01:56:52.270Z,830.00
2023-04-20T01:57:52.279Z,829.00
2023-04-20T01:58:52.291Z,828.00
2023-04-20T01:59:52.278Z,829.00
2023-04-20T02:00:52.358Z,831.00
2023-04-20T02:01:52.431Z,835.00
2023-04-20T02:02:52.550Z,833.00
2023-04-20T02:03:52.807Z,832.00
2023-04-20T02:04:52.477Z,833.00
2023-04-20T02:05:52.470Z,831.00
2023-04-20T02:06:52.484Z,826.00
2023-04-20T02:07:52.456Z,829.00
2023-04-20T02:08:52.510Z,829.00
2023-04-20T02:09:52.595Z,827.00
2023-04-20T02:10:52.628Z,826.00
2023-04-20T02:11:52.617Z,828.00
2023-04-20T02:12:52.632Z,828.00
2023-04-20T02:13:52.631Z,826.00
2023-04-20T02:14:52.624Z,826.00
2023-04-20T02:15:52.641Z,825.00
2023-04-20T02:16:52.644Z,824.00
2023-04-20T02:17:53.078Z,824.00
2023-04-20T02:18:52.670Z,823.00
2023-04-20T02:19:52.627Z,821.00
2023-04-20T02:20:52.643Z,815.00
2023-04-20T02:21:52.629Z,815.00
2023-04-20T02:22:52.652Z,816.00
2023-04-20T02:23:52.623Z,817.00
2023-04-20T02:24:52.643Z,814.00
2023-04-20T02:25:52.638Z,817.00
2023-04-20T02:26:52.635Z,817.00
2023-04-20T02:27:52.634Z,817.00
2023-04-20T02:28:52.659Z,817.00
2023-04-20T02:29:52.643Z,817.00
2023-04-20T02:30:52.754Z,816.00
2023-04-20T02:31:52.648Z,814.00
2023-04-20T02:32:52.741Z,813.00
2023-04-20T02:33:52.649Z,814.00
2023-04-20T02:34:52.690Z,813.00
2023-04-20T02:35:52.661Z,813.00
2023-04-20T02:36:52.654Z,813.00
2023-04-20T02:37:52.669Z,817.00
2023-04-20T02:38:52.661Z,816.00
2023-04-20T02:39:52.661Z,813.00
2023-04-20T02:40:52.738Z,809.00
2023-04-20T02:41:52.750Z,809.00
2023-04-20T02:42:52.746Z,809.00
2023-04-20T02:43:52.749Z,807.00
2023-04-20T02:44:52.851Z,804.00
2023-04-20T02:45:52.827Z,804.00
2023-04-20T02:46:52.932Z,807.00
2023-04-20T02:47:52.877Z,805.00
2023-04-20T02:48:52.832Z,809.00
2023-04-20T02:49:52.835Z,812.00
2023-04-20T02:50:52.877Z,810.00
2023-04-20T02:51:52.844Z,809.00
2023-04-20T02:52:52.853Z,807.00
2023-04-20T02:53:52.841Z,806.00
2023-04-20T02:54:52.867Z,804.00
2023-04-20T02:55:52.946Z,804.00
2023-04-20T02:56:53.000Z,804.00
2023-04-20T02:57:53.048Z,803.00
2023-04-20T02:58:53.124Z,803.00
2023-04-20T02:59:53.183Z,799.00
2023-04-20T03:00:53.237Z,796.00
2023-04-20T03:01:53.353Z,797.00
2023-04-20T03:02:53.406Z,794.00
2023-04-20T03:03:53.609Z,794.00
2023-04-20T03:04:53.428Z,792.00
2023-04-20T03:05:53.313Z,793.00
2023-04-20T03:06:53.326Z,793.00
2023-04-20T03:07:53.303Z,791.00
2023-04-20T03:08:53.312Z,791.00
2023-04-20T03:09:53.330Z,791.00
2023-04-20T03:10:53.325Z,791.00
2023-04-20T03:11:53.326Z,791.00
2023-04-20T03:12:53.326Z,789.00
2023-04-20T03:13:53.338Z,787.00
2023-04-20T03:14:53.376Z,785.00
2023-04-20T03:15:53.440Z,788.00
2023-04-20T03:16:53.534Z,787.00
2023-04-20T03:17:53.505Z,787.00
2023-04-20T03:18:53.469Z,786.00
2023-04-20T03:19:53.478Z,788.00
2023-04-20T03:20:53.485Z,789.00
2023-04-20T03:21:53.484Z,789.00
2023-04-20T03:22:53.554Z,792.00
2023-04-20T03:23:53.491Z,792.00
2023-04-20T03:24:53.788Z,792.00
2023-04-20T03:25:53.501Z,790.00
2023-04-20T03:26:53.499Z,790.00
2023-04-20T03:27:53.531Z,788.00
2023-04-20T03:28:53.560Z,784.00
2023-04-20T03:29:53.538Z,785.00
2023-04-20T03:30:53.555Z,785.00
2023-04-20T03:31:53.591Z,784.00
2023-04-20T03:32:53.669Z,784.00
2023-04-20T03:33:53.533Z,783.00
2023-04-20T03:34:53.540Z,785.00
2023-04-20T03:35:53.535Z,782.00
2023-04-20T03:36:53.539Z,782.00
2023-04-20T03:37:53.539Z,783.00
2023-04-20T03:38:53.552Z,783.00
2023-04-20T03:39:53.571Z,784.00
2023-04-20T03:40:53.628Z,786.00
2023-04-20T03:41:53.677Z,782.00
2023-04-20T03:42:53.727Z,779.00
2023-04-20T03:43:54.275Z,779.00
2023-04-20T03:44:53.753Z,777.00
2023-04-20T03:45:53.797Z,774.00
2023-04-20T03:46:53.772Z,779.00
2023-04-20T03:47:53.814Z,779.00
2023-04-20T03:48:53.772Z,780.00
2023-04-20T03:49:53.839Z,782.00
2023-04-20T03:50:53.774Z,780.00
2023-04-20T03:51:53.772Z,781.00
2023-04-20T03:52:53.809Z,780.00
2023-04-20T03:53:53.856Z,777.00
2023-04-20T03:54:53.941Z,777.00
2023-04-20T03:55:53.973Z,774.00
2023-04-20T03:56:53.999Z,777.00
2023-04-20T03:57:54.023Z,779.00
2023-04-20T03:58:53.990Z,782.00
2023-04-20T03:59:54.050Z,782.00
2023-04-20T04:00:54.084Z,784.00
2023-04-20T04:01:54.179Z,785.00
2023-04-20T04:02:54.352Z,784.00
2023-04-20T04:03:54.563Z,781.00
2023-04-20T04:04:54.355Z,778.00
2023-04-20T04:05:54.270Z,780.00
2023-04-20T04:06:54.295Z,780.00
2023-04-20T04:07:54.328Z,777.00
2023-04-20T04:08:54.355Z,777.00
2023-04-20T04:09:54.365Z,776.00
2023-04-20T04:10:54.434Z,775.00
2023-04-20T04:11:54.437Z,773.00
2023-04-20T04:12:54.486Z,775.00
2023-04-20T04:13:54.463Z,774.00
2023-04-20T04:14:54.464Z,772.00
2023-04-20T04:15:54.468Z,770.00
2023-04-20T04:16:54.515Z,768.00
2023-04-20T04:17:54.550Z,769.00
2023-04-20T04:18:54.505Z,771.00
2023-04-20T04:19:54.524Z,769.00
2023-04-20T04:20:54.595Z,770.00
2023-04-20T04:21:54.617Z,770.00
2023-04-20T04:22:54.627Z,772.00
2023-04-20T04:23:54.644Z,773.00
2023-04-20T04:24:54.722Z,771.00
2023-04-20T04:25:54.769Z,769.00
2023-04-20T04:26:54.763Z,768.00
2023-04-20T04:27:54.727Z,766.00
2023-04-20T04:28:54.731Z,769.00
2023-04-20T04:29:54.718Z,771.00
2023-04-20T04:30:54.771Z,768.00
2023-04-20T04:31:54.884Z,770.00
2023-04-20T04:32:54.952Z,769.00
2023-04-20T04:33:54.935Z,767.00
2023-04-20T04:34:55.006Z,765.00
2023-04-20T04:35:55.108Z,764.00
2023-04-20T04:36:55.019Z,767.00
2023-04-20T04:37:55.034Z,761.00
2023-04-20T04:38:55.086Z,761.00
2023-04-20T04:39:55.120Z,762.00
2023-04-20T04:40:55.146Z,762.00
2023-04-20T04:41:55.154Z,765.00
2023-04-20T04:42:55.233Z,765.00
2023-04-20T04:43:55.155Z,766.00
2023-04-20T04:44:55.151Z,769.00
2023-04-20T04:45:55.198Z,768.00
2023-04-20T04:46:55.146Z,768.00
2023-04-20T04:47:55.153Z,766.00
2023-04-20T04:48:55.165Z,769.00
2023-04-20T04:49:55.146Z,769.00
2023-04-20T04:50:55.155Z,769.00
2023-04-20T04:51:55.134Z,770.00
2023-04-20T04:52:55.131Z,771.00
2023-04-20T04:53:55.133Z,770.00
2023-04-20T04:54:55.145Z,768.00
2023-04-20T04:55:55.123Z,766.00
2023-04-20T04:56:55.130Z,762.00
2023-04-20T04:57:55.122Z,760.00
2023-04-20T04:58:55.143Z,759.00
2023-04-20T04:59:55.110Z,761.00
2023-04-20T05:00:55.104Z,762.00
2023-04-20T05:01:55.189Z,761.00
2023-04-20T05:02:55.326Z,760.00
2023-04-20T05:03:55.368Z,760.00
2023-04-20T05:04:55.262Z,760.00
2023-04-20T05:05:55.235Z,759.00
2023-04-20T05:06:55.216Z,758.00
2023-04-20T05:07:55.213Z,758.00
2023-04-20T05:08:55.214Z,756.00
2023-04-20T05:09:55.215Z,756.00
2023-04-20T05:10:55.223Z,758.00
2023-04-20T05:11:55.217Z,757.00
2023-04-20T05:12:55.219Z,757.00
2023-04-20T05:13:55.278Z,756.00
2023-04-20T05:14:55.233Z,754.00
2023-04-20T05:15:55.320Z,751.00
2023-04-20T05:16:55.225Z,752.00
2023-04-20T05:17:55.272Z,753.00
2023-04-20T05:18:55.224Z,755.00
2023-04-20T05:19:55.232Z,754.00
2023-04-20T05:20:55.241Z,753.00
2023-04-20T05:21:55.223Z,754.00
2023-04-20T05:22:55.224Z,751.00
2023-04-20T05:23:55.288Z,756.00
2023-04-20T05:24:55.228Z,761.00
2023-04-20T05:25:55.212Z,764.00
2023-04-20T05:26:55.219Z,769.00
2023-04-20T05:27:55.224Z,769.00
2023-04-20T05:28:55.221Z,768.00
2023-04-20T05:29:55.217Z,766.00
2023-04-20T05:30:55.374Z,766.00
2023-04-20T05:31:55.278Z,768.00
2023-04-20T05:32:55.310Z,769.00
2023-04-20T05:33:55.292Z,766.00
2023-04-20T05:34:55.277Z,770.00
2023-04-20T05:35:55.795Z,773.00
2023-04-20T05:36:55.356Z,783.00
2023-04-20T05:37:55.391Z,790.00
2023-04-20T05:38:55.430Z,792.00
2023-04-20T05:39:55.448Z,792.00
2023-04-20T05:40:55.482Z,794.00
2023-04-20T05:41:55.799Z,798.00
2023-04-20T05:42:55.582Z,804.00
2023-04-20T05:43:55.639Z,810.00
2023-04-20T05:44:55.688Z,812.00
2023-04-20T05:45:55.796Z,817.00
2023-04-20T05:46:55.913Z,820.00
2023-04-20T05:47:55.835Z,823.00
2023-04-20T05:48:56.317Z,827.00
2023-04-20T05:49:55.919Z,828.00
2023-04-20T05:50:56.033Z,833.00
2023-04-20T05:51:56.048Z,837.00
2023-04-20T05:52:56.154Z,837.00
2023-04-20T05:53:56.318Z,837.00
2023-04-20T05:54:56.206Z,835.00
2023-04-20T05:55:56.243Z,711.00
2023-04-20T05:56:56.279Z,674.00
2023-04-20T05:57:56.311Z,601.00
2023-04-20T05:58:57.854Z,587.00
2023-04-20T05:59:57.452Z,583.00
2023-04-20T06:00:56.487Z,580.00
2023-04-20T06:01:59.742Z,571.00
2023-04-20T06:02:57.972Z,540.00
2023-04-20T06:03:57.054Z,535.00
2023-04-20T06:04:57.068Z,530.00
2023-04-20T06:05:57.815Z,528.00
2023-04-20T06:06:59.987Z,525.00
2023-04-20T06:07:57.000Z,518.00
2023-04-20T06:08:56.849Z,515.00
2023-04-20T06:09:56.790Z,511.00
2023-04-20T06:10:56.788Z,508.00
2023-04-20T06:11:56.862Z,503.00
2023-04-20T06:12:56.785Z,501.00
2023-04-20T06:13:57.844Z,498.00
2023-04-20T06:14:56.770Z,493.00
2023-04-20T06:15:56.900Z,488.00
2023-04-20T06:16:56.725Z,488.00
2023-04-20T06:17:56.871Z,489.00
2023-04-20T06:18:56.858Z,486.00
2023-04-20T06:19:56.769Z,485.00
2023-04-20T06:20:56.790Z,483.00
2023-04-20T06:21:57.501Z,480.00
2023-04-20T06:22:56.829Z,475.00
2023-04-20T06:23:56.842Z,476.00
2023-04-20T06:24:56.836Z,474.00
2023-04-20T06:25:56.829Z,475.00
2023-04-20T06:26:56.813Z,474.00
2023-04-20T06:27:56.804Z,474.00
2023-04-20T06:28:56.832Z,474.00
2023-04-20T06:29:56.801Z,475.00
2023-04-20T06:30:57.769Z,477.00
2023-04-20T06:31:56.875Z,478.00
2023-04-20T06:33:12.581Z,478.00
2023-04-20T06:33:56.848Z,476.00
2023-04-20T06:34:56.769Z,475.00
2023-04-20T06:35:56.793Z,476.00
2023-04-20T06:36:56.858Z,476.00
2023-04-20T06:37:56.754Z,475.00
2023-04-20T06:38:56.746Z,475.00
2023-04-20T06:39:56.745Z,476.00
2023-04-20T06:40:56.750Z,477.00
2023-04-20T06:42:00.110Z,477.00
2023-04-20T06:42:56.730Z,479.00
2023-04-20T06:43:56.857Z,477.00
2023-04-20T06:44:56.874Z,478.00
2023-04-20T06:45:56.707Z,481.00
2023-04-20T06:46:56.747Z,483.00
2023-04-20T06:47:56.749Z,483.00
2023-04-20T06:48:56.873Z,480.00
2023-04-20T06:49:56.691Z,482.00
2023-04-20T06:50:59.946Z,479.00
2023-04-20T06:51:56.683Z,478.00
2023-04-20T06:53:12.271Z,473.00
2023-04-20T06:53:56.918Z,472.00
2023-04-20T06:54:56.636Z,471.00
2023-04-20T06:55:56.649Z,469.00
2023-04-20T06:56:56.646Z,469.00
2023-04-20T06:57:57.426Z,469.00
2023-04-20T06:58:56.906Z,472.00
2023-04-20T06:59:56.625Z,476.00
2023-04-20T07:00:56.566Z,477.00
2023-04-20T07:01:56.835Z,480.00
2023-04-20T07:02:56.673Z,478.00
2023-04-20T07:03:56.747Z,476.00
2023-04-20T07:04:56.618Z,473.00
2023-04-20T07:05:56.534Z,476.00
2023-04-20T07:07:00.072Z,474.00
2023-04-20T07:07:56.535Z,476.00
2023-04-20T07:09:00.053Z,475.00
2023-04-20T07:09:56.567Z,476.00
2023-04-20T07:10:57.565Z,476.00
2023-04-20T07:11:56.552Z,478.00
2023-04-20T07:12:57.571Z,479.00
2023-04-20T07:13:56.858Z,481.00
2023-04-20T07:14:56.531Z,480.00
2023-04-20T07:15:56.555Z,476.00
2023-04-20T07:16:56.914Z,478.00
2023-04-20T07:17:56.517Z,479.00
2023-04-20T07:18:56.865Z,482.00
2023-04-20T07:19:56.910Z,486.00
2023-04-20T07:20:56.515Z,486.00
2023-04-20T07:21:56.487Z,488.00
2023-04-20T07:22:56.482Z,490.00
2023-04-20T07:23:56.931Z,489.00
2023-04-20T07:24:56.473Z,489.00
2023-04-20T07:25:56.441Z,488.00
2023-04-20T07:26:56.846Z,485.00
2023-04-20T07:27:56.433Z,483.00
2023-04-20T07:28:56.427Z,482.00
2023-04-20T07:29:56.463Z,482.00
2023-04-20T07:30:56.458Z,481.00
2023-04-20T07:31:56.893Z,481.00
2023-04-20T07:32:56.561Z,480.00
2023-04-20T07:33:56.878Z,481.00
2023-04-20T07:34:56.641Z,480.00
2023-04-20T07:35:56.658Z,480.00
2023-04-20T07:36:56.734Z,481.00
2023-04-20T07:37:56.781Z,484.00
2023-04-20T07:38:56.883Z,496.00
2023-04-20T07:39:56.929Z,592.00
2023-04-20T07:40:57.006Z,617.00
2023-04-20T07:41:57.075Z,658.00
2023-04-20T07:42:57.382Z,677.00
2023-04-20T07:43:57.167Z,693.00
2023-04-20T07:44:57.185Z,702.00
2023-04-20T07:45:57.249Z,707.00
2023-04-20T07:46:57.261Z,721.00
2023-04-20T07:47:57.565Z,736.00
2023-04-20T07:48:57.346Z,752.00
2023-04-20T07:49:57.371Z,762.00
2023-04-20T07:50:57.431Z,789.00
2023-04-20T07:52:09.199Z,849.00
2023-04-20T07:52:57.918Z,871.00
2023-04-20T07:53:57.877Z,888.00
2023-04-20T07:54:57.410Z,926.00
2023-04-20T07:55:57.395Z,949.00
2023-04-20T07:56:57.391Z,954.00
2023-04-20T07:57:57.488Z,986.00
2023-04-20T07:58:57.363Z,1008.00
2023-04-20T07:59:57.348Z,1026.00
2023-04-20T08:00:57.377Z,1038.00
2023-04-20T08:01:57.350Z,1051.00
2023-04-20T08:02:57.428Z,1074.00
2023-04-20T08:03:57.656Z,1102.00
2023-04-20T08:04:57.493Z,1117.00
2023-04-20T08:05:57.536Z,1156.00
2023-04-20T08:06:57.291Z,1163.00
2023-04-20T08:07:57.357Z,1164.00
2023-04-20T08:08:57.671Z,1171.00
2023-04-20T08:09:57.289Z,1181.00
2023-04-20T08:10:57.268Z,1196.00
2023-04-20T08:11:57.606Z,1235.00
2023-04-20T08:12:57.270Z,1263.00
2023-04-20T08:13:58.519Z,1273.00
2023-04-20T08:14:57.249Z,1276.00
2023-04-20T08:15:57.290Z,1289.00
2023-04-20T08:16:57.260Z,1311.00
2023-04-20T08:17:57.342Z,1311.00
2023-04-20T08:18:57.857Z,1336.00
2023-04-20T08:19:57.419Z,1383.00
2023-04-20T08:20:57.476Z,1392.00
2023-04-20T08:21:57.533Z,1390.00
2023-04-20T08:22:57.612Z,1402.00
2023-04-20T08:23:57.858Z,1407.00
2023-04-20T08:24:57.699Z,1418.00
2023-04-20T08:25:57.678Z,1439.00
2023-04-20T08:26:57.694Z,1452.00
2023-04-20T08:27:57.734Z,1468.00
2023-04-20T08:28:57.876Z,1482.00
2023-04-20T08:29:57.822Z,1491.00
2023-04-20T08:30:57.892Z,1504.00
2023-04-20T08:31:58.016Z,1515.00
2023-04-20T08:32:57.965Z,1521.00
2023-04-20T08:33:58.366Z,1541.00
2023-04-20T08:34:58.053Z,1556.00
2023-04-20T08:35:58.060Z,1560.00
2023-04-20T08:36:58.086Z,1565.00
2023-04-20T08:37:58.131Z,1567.00
2023-04-20T08:38:58.382Z,1572.00
2023-04-20T08:39:58.206Z,1576.00
2023-04-20T08:40:58.465Z,1599.00
2023-04-20T08:41:58.297Z,1624.00
2023-04-20T08:42:58.366Z,1617.00
2023-04-20T08:43:58.879Z,1610.00
2023-04-20T08:44:58.427Z,1454.00
2023-04-20T08:45:58.486Z,1397.00
2023-04-20T08:46:58.640Z,1420.00
2023-04-20T08:47:58.937Z,1487.00
2023-04-20T08:48:58.640Z,1501.00
2023-04-20T08:49:58.697Z,1407.00
2023-04-20T08:50:58.748Z,1394.00
2023-04-20T08:52:01.361Z,1399.00
2023-04-20T08:52:58.874Z,1410.00
2023-04-20T08:53:58.761Z,1422.00
2023-04-20T08:54:58.764Z,1440.00
2023-04-20T08:55:58.742Z,1499.00
2023-04-20T08:56:58.899Z,1529.00
2023-04-20T08:57:58.733Z,1541.00
2023-04-20T08:58:58.878Z,1552.00
2023-04-20T08:59:59.382Z,1566.00
2023-04-20T09:00:58.723Z,1578.00
2023-04-20T09:01:58.830Z,1596.00
2023-04-20T09:02:58.954Z,1610.00
2023-04-20T09:03:58.778Z,1620.00
2023-04-20T09:04:58.912Z,1620.00
2023-04-20T09:05:58.680Z,1542.00
2023-04-20T09:06:58.675Z,1545.00
2023-04-20T09:07:58.668Z,1563.00
2023-04-20T09:08:58.675Z,1553.00
2023-04-20T09:09:58.887Z,1542.00
2023-04-20T09:10:58.645Z,1421.00
2023-04-20T09:11:58.645Z,1450.00
2023-04-20T09:12:58.672Z,1542.00
2023-04-20T09:13:58.625Z,1531.00
2023-04-20T09:14:58.880Z,1484.00
2023-04-20T09:15:58.641Z,1440.00
2023-04-20T09:16:58.607Z,1354.00
2023-04-20T09:17:58.659Z,1315.00
2023-04-20T09:18:58.673Z,1290.00
2023-04-20T09:19:58.880Z,1258.00
2023-04-20T09:20:58.670Z,1247.00
2023-04-20T09:21:58.883Z,1238.00
2023-04-20T09:22:58.738Z,1217.00
2023-04-20T09:23:58.778Z,1218.00
2023-04-20T09:24:58.875Z,1216.00
2023-04-20T09:25:58.803Z,1204.00
2023-04-20T09:26:58.815Z,1182.00
2023-04-20T09:27:58.861Z,1184.00
2023-04-20T09:28:58.928Z,1186.00
2023-04-20T09:29:59.414Z,1187.00
2023-04-20T09:30:58.983Z,1190.00
2023-04-20T09:31:59.038Z,1197.00
2023-04-20T09:32:59.100Z,1205.00
2023-04-20T09:33:59.192Z,1216.00
2023-04-20T09:34:59.906Z,1240.00
2023-04-20T09:35:59.263Z,1254.00
2023-04-20T09:36:59.311Z,1265.00
2023-04-20T09:37:59.399Z,1288.00
2023-04-20T09:39:03.077Z,1294.00
2023-04-20T09:39:59.971Z,1303.00
2023-04-20T09:40:59.424Z,1314.00
2023-04-20T09:42:03.387Z,1335.00
2023-04-20T09:43:07.571Z,1349.00
2023-04-20T09:43:59.389Z,1360.00
2023-04-20T09:45:00.048Z,1375.00
2023-04-20T09:46:10.917Z,1385.00
2023-04-20T09:46:59.362Z,1397.00
2023-04-20T09:48:02.412Z,1415.00
2023-04-20T09:48:59.366Z,1440.00
2023-04-20T09:50:14.016Z,1466.00
2023-04-20T09:52:17.618Z,1519.00
2023-04-20T09:53:18.681Z,1524.00
2023-04-20T09:54:18.806Z,1528.00
2023-04-20T09:55:18.427Z,1526.00
2023-04-20T09:56:19.399Z,1542.00
2023-04-20T09:57:18.437Z,1570.00
2023-04-20T09:58:18.440Z,1579.00
2023-04-20T09:59:18.386Z,1592.00
2023-04-20T10:00:18.466Z,1605.00
2023-04-20T10:01:18.409Z,1615.00
2023-04-20T10:02:25.253Z,1623.00
2023-04-20T10:03:19.287Z,1627.00
2023-04-20T10:04:19.804Z,1631.00
2023-04-20T10:05:18.578Z,1645.00
2023-04-20T10:06:18.583Z,1691.00
2023-04-20T10:07:18.614Z,1713.00
2023-04-20T10:08:19.106Z,1715.00
2023-04-20T10:09:19.115Z,1721.00
2023-04-20T10:10:18.644Z,1739.00
2023-04-20T10:11:18.655Z,1750.00
2023-04-20T10:12:18.674Z,1758.00
2023-04-20T10:13:21.606Z,1784.00
2023-04-20T10:14:19.389Z,1797.00
2023-04-20T10:15:18.672Z,1802.00
2023-04-20T10:16:18.923Z,1816.00
2023-04-20T10:17:18.894Z,1829.00
2023-04-20T10:18:18.753Z,1839.00
2023-04-20T10:19:18.658Z,1853.00
2023-04-20T10:20:19.120Z,1858.00
2023-04-20T10:21:18.620Z,1876.00
2023-04-20T10:22:18.636Z,1911.00
2023-04-20T10:23:18.828Z,1923.00
2023-04-20T10:24:20.409Z,1934.00
2023-04-20T10:25:18.610Z,1939.00
2023-04-20T10:26:19.586Z,1944.00
2023-04-20T10:27:18.597Z,1959.00
2023-04-20T10:28:18.578Z,1981.00
2023-04-20T10:29:18.638Z,1991.00
2023-04-20T10:30:18.692Z,2005.00
2023-04-20T10:31:18.659Z,2027.00
2023-04-20T10:32:18.740Z,2035.00
2023-04-20T10:33:18.576Z,2046.00
2023-04-20T10:34:18.697Z,2062.00
2023-04-20T10:35:18.534Z,2061.00
2023-04-20T10:36:18.621Z,2072.00
2023-04-20T10:37:18.520Z,2125.00
2023-04-20T10:38:18.501Z,2122.00
2023-04-20T10:39:19.780Z,2132.00
2023-04-20T10:40:18.654Z,2137.00
2023-04-20T10:41:18.507Z,2143.00
2023-04-20T10:42:18.960Z,2146.00
2023-04-20T10:43:18.733Z,2158.00
2023-04-20T10:44:19.407Z,2191.00
2023-04-20T10:45:19.118Z,2204.00
2023-04-20T10:46:18.722Z,2208.00
2023-04-20T10:47:18.455Z,2217.00
2023-04-20T10:48:18.601Z,2222.00
2023-04-20T10:49:18.732Z,2234.00
2023-04-20T10:50:18.476Z,2272.00
2023-04-20T10:51:18.523Z,2281.00
2023-04-20T10:52:18.587Z,2303.00
2023-04-20T10:53:18.646Z,2303.00
2023-04-20T10:54:18.660Z,2306.00
2023-04-20T10:55:19.133Z,2320.00
2023-04-20T10:56:18.681Z,2330.00
2023-04-20T10:57:18.673Z,2338.00
2023-04-20T10:58:18.682Z,2354.00
2023-04-20T10:59:18.955Z,2363.00
2023-04-20T11:00:19.131Z,2372.00
2023-04-20T11:01:18.789Z,2383.00
2023-04-20T11:02:18.896Z,2393.00
2023-04-20T11:03:19.640Z,2401.00
2023-04-20T11:04:19.428Z,2415.00
2023-04-20T11:05:19.190Z,2432.00
2023-04-20T11:06:19.030Z,2444.00
2023-04-20T11:07:19.039Z,2456.00
2023-04-20T11:08:19.029Z,2466.00
2023-04-20T11:09:19.448Z,2479.00
2023-04-20T11:10:19.136Z,2492.00
2023-04-20T11:11:19.122Z,2505.00
2023-04-20T11:12:19.034Z,2510.00
2023-04-20T11:13:19.051Z,2521.00
2023-04-20T11:14:19.041Z,2533.00
2023-04-20T11:15:19.141Z,2548.00
2023-04-20T11:16:19.129Z,2555.00
2023-04-20T11:17:19.360Z,2563.00
2023-04-20T11:18:19.278Z,2577.00
2023-04-20T11:19:19.274Z,2597.00
2023-04-20T11:20:19.229Z,2666.00
2023-04-20T11:21:19.171Z,2658.00
2023-04-20T11:22:19.638Z,2642.00
2023-04-20T11:23:19.212Z,2628.00
2023-04-20T11:24:19.216Z,2616.00
2023-04-20T11:25:19.215Z,2607.00
2023-04-20T11:26:19.212Z,2589.00
2023-04-20T11:27:20.030Z,2560.00
2023-04-20T11:28:19.261Z,2528.00
2023-04-20T11:29:19.846Z,2520.00
2023-04-20T11:30:19.244Z,2522.00
2023-04-20T11:31:19.568Z,2517.00
2023-04-20T11:32:19.854Z,2519.00
2023-04-20T11:33:19.407Z,2521.00
2023-04-20T11:34:19.284Z,2517.00
2023-04-20T11:35:19.314Z,2512.00
2023-04-20T11:36:19.357Z,2509.00
2023-04-20T11:37:19.674Z,2508.00
2023-04-20T11:38:19.340Z,2507.00
2023-04-20T11:39:19.577Z,2504.00
2023-04-20T11:40:19.390Z,2504.00
2023-04-20T11:41:19.413Z,2502.00
2023-04-20T11:42:19.492Z,2500.00
2023-04-20T11:43:19.484Z,2493.00
2023-04-20T11:44:19.477Z,2490.00
2023-04-20T11:45:19.501Z,2483.00
2023-04-20T11:46:19.651Z,2474.00
2023-04-20T11:47:19.517Z,2468.00
2023-04-20T11:48:19.532Z,2462.00
2023-04-20T11:49:19.729Z,2458.00
2023-04-20T11:50:19.670Z,2459.00
2023-04-20T11:51:19.670Z,2459.00
2023-04-20T11:52:19.815Z,2456.00
2023-04-20T11:53:19.677Z,2444.00
2023-04-20T11:54:19.734Z,2443.00
2023-04-20T11:55:20.149Z,2438.00
2023-04-20T11:56:19.776Z,2429.00
2023-04-20T11:57:19.834Z,2433.00
2023-04-20T11:58:19.861Z,2422.00
2023-04-20T11:59:20.624Z,2420.00
2023-04-20T12:00:19.911Z,2415.00
2023-04-20T12:01:19.947Z,2416.00
2023-04-20T12:02:20.112Z,2413.00
2023-04-20T12:03:20.140Z,2413.00
2023-04-20T12:04:20.525Z,2412.00
2023-04-20T12:05:20.093Z,2405.00
2023-04-20T12:06:20.077Z,2395.00
2023-04-20T12:07:20.109Z,2387.00
2023-04-20T12:08:20.190Z,2382.00
2023-04-20T12:10:19.156Z,2382.00
2023-04-20T12:11:20.151Z,2381.00
2023-04-20T12:12:20.176Z,2376.00
2023-04-20T12:13:20.213Z,2374.00
2023-04-20T12:14:20.285Z,2371.00
2023-04-20T12:15:20.674Z,2370.00
2023-04-20T12:16:20.722Z,2375.00
2023-04-20T12:17:20.440Z,2377.00
2023-04-20T12:18:20.410Z,2379.00
2023-04-20T12:19:20.660Z,2383.00
2023-04-20T12:20:20.495Z,2380.00
2023-04-20T12:21:20.536Z,2381.00
2023-04-20T12:22:20.562Z,2378.00
2023-04-20T12:23:20.608Z,2373.00